Terminal Aerodrome Forecast
Issued by NWS

Home | Current Version | Previous Version | Text Only | Print | Product List | Glossary On
Versions: 1 2 3 4 5 6 7 8 9 10 11 12 13 14 15
000
FTUS45 KRIW 101122
TAFPNA
TAF
KPNA 101122Z 1012/1112 VRB05KT 5SM -SN SCT015 OVC030
     FM102200 30006KT 2SM -SN OVC014
     FM110100 30008KT 5SM -SN OVC025
     FM110600 30007KT P6SM VCSH OVC035
      AMD LTD TO CLD VIS AND WIND=

USA.gov is the U.S. government's official web portal to all federal, state and local government web resources and services.